METAR

METAR

SAPL62 EPRA 240400
METAR EPRA 240400Z 21002KT CAVOK 13/13 Q1013=

TAF

TAF

FCPL62 EPRA 231700 AAA
TAF AMD EPRA 231958Z 2318/2403 CNL=

Witamy na stronie Radom Meteo

zawsze aktualna prognoza dla pilotów 

W zakresie osłony meteorologicznej realizujemy:

  • wykonywanie pomiarów i obserwacji meteorologicznych;
  • przygotowane prognoz meteorologicznych;
  • opracowywanie ostrzeżeń meteorologicznych;
  • informowanie o warunkach meteorologicznych;
  • dystrybucję informacji meteorologicznych;
  • opracowywanie danych klimatycznych.